createdAt,value
2018-08-27T04:53:13.274Z,3.13
2018-08-27T04:55:45.793Z,6.53
2018-08-27T04:58:18.226Z,4.13
2018-08-27T05:00:50.632Z,3.87
2018-08-27T05:03:23.073Z,6.87
2018-08-27T05:05:55.425Z,3.90
2018-08-27T05:08:27.751Z,6.50
2018-08-27T05:11:00.120Z,6.23
2018-08-27T05:13:33.485Z,9.17
2018-08-27T05:16:05.808Z,4.33
2018-08-27T05:18:38.159Z,6.87
2018-08-27T05:21:10.505Z,7.47
2018-08-27T05:23:42.863Z,4.03
2018-08-27T05:26:15.217Z,4.93
2018-08-27T05:28:47.552Z,3.97
2018-08-27T05:31:20.073Z,3.77
2018-08-27T05:33:52.360Z,4.53
2018-08-27T05:36:29.655Z,3.03
2018-08-27T05:39:01.985Z,2.77
2018-08-27T05:41:34.341Z,2.83
2018-08-27T05:44:06.696Z,4.60
2018-08-27T05:46:39.048Z,3.97
2018-08-27T05:49:11.420Z,3.13
2018-08-27T05:51:43.794Z,4.27
2018-08-27T05:54:16.161Z,5.80
2018-08-27T05:56:48.584Z,4.20
2018-08-27T05:59:20.916Z,2.43
2018-08-27T06:01:53.290Z,3.87
2018-08-27T06:04:25.594Z,2.77
2018-08-27T06:06:57.941Z,4.37
2018-08-27T06:09:30.267Z,3.83
2018-08-27T06:12:02.632Z,2.87
2018-08-27T06:14:35.070Z,4.83
2018-08-27T06:17:08.278Z,4.77
2018-08-27T06:19:40.524Z,3.17
2018-08-27T06:22:12.980Z,6.47
2018-08-27T06:24:45.197Z,3.73
2018-08-27T06:27:17.646Z,2.63
2018-08-27T06:29:49.976Z,4.83
2018-08-27T06:32:22.536Z,4.43
2018-08-27T06:34:55.501Z,5.80
2018-08-27T06:37:27.858Z,3.53
2018-08-27T06:40:00.221Z,2.83
2018-08-27T06:42:32.556Z,2.37
2018-08-27T06:45:05.435Z,2.77
2018-08-27T06:47:37.786Z,2.87
2018-08-27T06:50:10.101Z,5.73
2018-08-27T06:52:42.427Z,3.73
2018-08-27T06:55:14.748Z,4.83
2018-08-27T06:57:47.085Z,5.37
2018-08-27T07:00:19.404Z,6.03
2018-08-27T07:02:51.731Z,3.97
2018-08-27T07:05:24.096Z,4.67
2018-08-27T07:07:56.427Z,3.73
2018-08-27T07:10:28.748Z,4.87
2018-08-27T07:13:02.164Z,2.80
2018-08-27T07:15:34.493Z,2.97
2018-08-27T07:18:06.844Z,9.87
2018-08-27T07:20:39.155Z,5.77
2018-08-27T07:23:11.561Z,5.97
2018-08-27T07:25:43.885Z,3.10
2018-08-27T07:28:16.246Z,2.43
2018-08-27T07:30:48.552Z,2.87
2018-08-27T07:33:20.902Z,4.33
2018-08-27T07:35:53.315Z,2.33
2018-08-27T07:38:25.632Z,1.60
2018-08-27T07:40:57.961Z,6.13
2018-08-27T07:43:30.297Z,5.17
2018-08-27T07:46:02.735Z,4.53
2018-08-27T07:48:35.055Z,2.60
2018-08-27T07:51:07.372Z,1.73
2018-08-27T07:53:39.684Z,2.43
2018-08-27T07:56:12.006Z,1.67
2018-08-27T07:58:44.361Z,1.93
2018-08-27T08:01:16.660Z,7.97
2018-08-27T08:03:48.993Z,2.77
2018-08-27T08:06:21.299Z,4.00
2018-08-27T08:08:53.623Z,2.00
2018-08-27T08:11:25.922Z,2.83
2018-08-27T08:13:58.265Z,2.03
2018-08-27T08:16:30.572Z,1.87
2018-08-27T08:19:04.225Z,4.07
2018-08-27T08:21:36.531Z,2.83
2018-08-27T08:24:08.997Z,4.13
2018-08-27T08:26:41.348Z,2.23
2018-08-27T08:29:13.680Z,3.30
2018-08-27T08:31:46.009Z,2.70
2018-08-27T08:34:18.332Z,1.73
2018-08-27T08:36:50.644Z,2.53
2018-08-27T08:39:22.970Z,1.60
2018-08-27T08:41:55.290Z,1.60
2018-08-27T08:44:27.622Z,2.37
2018-08-27T08:46:59.932Z,2.40
2018-08-27T08:49:32.254Z,1.37
2018-08-27T08:52:05.078Z,1.93
2018-08-27T08:54:37.400Z,2.87
2018-08-27T08:57:09.748Z,1.77
2018-08-27T08:59:42.091Z,1.37
2018-08-27T09:02:14.669Z,2.23
2018-08-27T09:04:47.017Z,2.37
2018-08-27T09:07:19.324Z,2.27
2018-08-27T09:09:51.681Z,1.70
2018-08-27T09:12:24.444Z,2.37
2018-08-27T09:14:56.762Z,2.20
2018-08-27T09:17:29.091Z,3.10
2018-08-27T09:20:03.413Z,3.23
2018-08-27T09:22:35.744Z,2.07
2018-08-27T09:25:08.085Z,4.70
2018-08-27T09:27:40.396Z,3.43
2018-08-27T09:30:12.774Z,1.10
2018-08-27T09:32:45.096Z,1.67
2018-08-27T09:35:17.445Z,2.02
2018-08-27T09:37:49.773Z,5.13
2018-08-27T09:40:22.117Z,1.40
2018-08-27T09:42:54.438Z,5.90
2018-08-27T09:45:26.800Z,6.47
2018-08-27T09:47:59.112Z,1.77
2018-08-27T09:50:31.483Z,2.90
2018-08-27T09:53:03.811Z,3.33
2018-08-27T09:55:36.149Z,4.87
2018-08-27T09:58:08.464Z,2.22
2018-08-27T10:00:40.788Z,7.25
2018-08-27T10:03:13.124Z,6.15
2018-08-27T10:05:45.458Z,3.45
2018-08-27T10:08:17.767Z,3.05
2018-08-27T10:10:50.115Z,2.87
2018-08-27T10:13:22.435Z,2.80
2018-08-27T10:15:54.766Z,3.12
2018-08-27T10:18:27.098Z,2.83
2018-08-27T10:20:59.437Z,5.65
2018-08-27T10:23:31.748Z,4.20
2018-08-27T10:26:04.140Z,4.97
2018-08-27T10:28:36.472Z,3.62
2018-08-27T10:31:08.773Z,4.60
2018-08-27T10:33:41.100Z,6.22
2018-08-27T10:36:13.439Z,5.12
2018-08-27T10:38:45.765Z,8.80
2018-08-27T10:41:18.100Z,10.63
2018-08-27T10:43:50.425Z,7.10
2018-08-27T10:46:22.756Z,9.30
2018-08-27T10:48:55.089Z,11.28
2018-08-27T10:51:27.432Z,10.60
2018-08-27T10:53:59.764Z,14.15
2018-08-27T10:56:32.108Z,24.55
2018-08-27T10:59:04.447Z,23.98
2018-08-27T11:01:36.807Z,26.35
2018-08-27T11:04:09.134Z,28.77
2018-08-27T11:06:41.593Z,21.42
2018-08-27T11:09:13.896Z,21.65
2018-08-27T11:11:46.257Z,14.58
2018-08-27T11:14:18.568Z,23.22
2018-08-27T11:16:50.911Z,11.70
2018-08-27T11:19:23.287Z,14.93
2018-08-27T11:21:55.628Z,12.95
2018-08-27T11:24:28.091Z,14.65
2018-08-27T11:27:00.428Z,15.08
2018-08-27T11:29:33.004Z,15.88
2018-08-27T11:32:05.548Z,13.18
2018-08-27T11:34:37.878Z,14.35
2018-08-27T11:37:10.209Z,17.12
2018-08-27T11:39:42.531Z,14.63
2018-08-27T11:42:14.886Z,17.90
2018-08-27T11:44:47.376Z,9.48
2018-08-27T11:47:19.713Z,14.45
2018-08-27T11:49:52.060Z,12.03
2018-08-27T11:52:24.410Z,10.18
2018-08-27T11:54:56.805Z,10.03
2018-08-27T11:57:29.300Z,11.57
2018-08-27T12:00:01.674Z,11.15
2018-08-27T12:02:34.312Z,12.65
2018-08-27T12:05:06.788Z,13.65
2018-08-27T12:07:39.132Z,10.43
2018-08-27T12:10:11.476Z,11.85
2018-08-27T12:12:43.792Z,14.20
2018-08-27T12:15:16.103Z,10.78
2018-08-27T12:17:48.452Z,10.75
2018-08-27T12:20:20.764Z,11.28
2018-08-27T12:22:53.317Z,9.13
2018-08-27T12:25:25.729Z,10.05
2018-08-27T12:27:58.052Z,10.15
2018-08-27T12:30:30.376Z,8.65
2018-08-27T12:33:02.704Z,10.30
2018-08-27T12:35:35.042Z,12.20
2018-08-27T12:38:07.367Z,11.05
2018-08-27T12:40:39.730Z,10.88
2018-08-27T12:43:12.031Z,10.25
2018-08-27T12:45:44.498Z,11.22
2018-08-27T12:48:16.851Z,8.45
2018-08-27T12:50:49.194Z,13.35
2018-08-27T12:53:21.496Z,11.10
2018-08-27T12:55:53.877Z,14.25
2018-08-27T12:58:26.221Z,8.30
2018-08-27T13:00:58.560Z,11.88
2018-08-27T13:03:30.965Z,10.58
2018-08-27T13:06:03.302Z,14.55
2018-08-27T13:08:35.685Z,10.93
2018-08-27T13:11:08.001Z,10.03
2018-08-27T13:13:40.344Z,10.00
2018-08-27T13:16:12.652Z,14.90
2018-08-27T13:18:44.992Z,11.33
2018-08-27T13:21:17.366Z,13.85
2018-08-27T13:23:49.773Z,11.38
2018-08-27T13:26:22.132Z,10.68
2018-08-27T13:28:54.473Z,12.13
2018-08-27T13:31:26.920Z,10.10
2018-08-27T13:33:59.169Z,11.73
2018-08-27T13:36:31.485Z,10.83
2018-08-27T13:39:05.891Z,13.13
2018-08-27T13:41:38.245Z,14.85
2018-08-27T13:44:10.616Z,9.98
2018-08-27T13:46:42.961Z,11.43
2018-08-27T13:49:15.381Z,10.13
2018-08-27T13:51:47.705Z,12.95
2018-08-27T13:54:20.032Z,15.77
2018-08-27T13:56:52.467Z,9.25
2018-08-27T13:59:24.796Z,12.73
2018-08-27T14:01:57.107Z,10.88
2018-08-27T14:04:29.432Z,12.00
2018-08-27T14:07:01.766Z,11.55
2018-08-27T14:09:34.259Z,8.28
2018-08-27T14:12:06.717Z,10.15
2018-08-27T14:14:39.062Z,12.03
2018-08-27T14:17:11.360Z,12.50
2018-08-27T14:19:43.789Z,8.05
2018-08-27T14:22:16.037Z,13.67
2018-08-27T14:24:48.363Z,9.93
2018-08-27T14:27:21.733Z,7.97
2018-08-27T14:29:54.135Z,12.68
2018-08-27T14:32:26.485Z,11.15
2018-08-27T14:34:58.815Z,12.20
2018-08-27T14:37:31.204Z,8.70
2018-08-27T14:40:03.649Z,10.53
2018-08-27T14:42:36.007Z,12.43
2018-08-27T14:45:08.333Z,7.33
2018-08-27T14:47:40.625Z,10.03
2018-08-27T14:50:12.964Z,8.73
2018-08-27T14:52:45.532Z,8.48
2018-08-27T14:55:17.982Z,10.72
2018-08-27T14:57:50.305Z,10.95
2018-08-27T15:00:22.657Z,11.53
2018-08-27T15:02:54.989Z,8.80
2018-08-27T15:05:27.355Z,9.55
2018-08-27T15:07:59.680Z,10.98
2018-08-27T15:10:32.036Z,9.73
2018-08-27T15:13:04.837Z,10.47
2018-08-27T15:15:37.177Z,12.13
2018-08-27T15:18:09.500Z,9.23
2018-08-27T15:20:41.930Z,11.20
2018-08-27T15:23:14.277Z,12.30
2018-08-27T15:25:46.806Z,10.30
2018-08-27T15:28:19.603Z,9.47
2018-08-27T15:30:51.941Z,11.50
2018-08-27T15:33:24.349Z,12.93
2018-08-27T15:35:56.693Z,12.00
2018-08-27T15:38:29.343Z,11.90
2018-08-27T15:41:01.601Z,8.23
2018-08-27T15:43:34.008Z,8.83
2018-08-27T15:46:06.296Z,12.17
2018-08-27T15:48:38.644Z,11.70
2018-08-27T15:51:11.019Z,14.67
2018-08-27T15:53:43.324Z,8.50
2018-08-27T15:56:15.696Z,9.70
2018-08-27T15:58:48.017Z,10.63
2018-08-27T16:01:20.373Z,13.17
2018-08-27T16:03:52.693Z,12.87
2018-08-27T16:06:25.133Z,10.63
2018-08-27T16:08:57.640Z,10.30
2018-08-27T16:11:30.189Z,11.63
2018-08-27T16:14:02.558Z,11.30
2018-08-27T16:16:35.023Z,12.75
2018-08-27T16:19:07.423Z,14.37
2018-08-27T16:21:39.933Z,11.63
2018-08-27T16:24:12.317Z,12.73
2018-08-27T16:26:44.666Z,9.27
2018-08-27T16:29:19.069Z,13.10
2018-08-27T16:31:51.490Z,11.83
2018-08-27T16:34:24.599Z,10.90
2018-08-27T16:36:57.026Z,13.57
2018-08-27T16:39:29.421Z,11.27
2018-08-27T16:42:01.701Z,15.07
2018-08-27T16:44:34.121Z,12.50
2018-08-27T16:47:06.489Z,11.50
2018-08-27T16:49:38.815Z,12.63
2018-08-27T16:52:11.280Z,16.50
2018-08-27T16:54:43.701Z,13.00
2018-08-27T16:57:16.056Z,11.07
2018-08-27T16:59:48.387Z,16.23
2018-08-27T17:02:20.748Z,13.77
2018-08-27T17:04:53.060Z,11.23
2018-08-27T17:07:25.405Z,12.17
2018-08-27T17:09:57.743Z,14.63
2018-08-27T17:12:30.144Z,12.50
2018-08-27T17:15:02.489Z,12.13
2018-08-27T17:17:34.817Z,10.77
2018-08-27T17:20:07.491Z,13.40
2018-08-27T17:22:39.799Z,12.53
2018-08-27T17:25:12.120Z,13.27
2018-08-27T17:27:44.438Z,11.13
2018-08-27T17:30:16.744Z,8.47
2018-08-27T17:32:49.067Z,14.97
2018-08-27T17:35:21.384Z,13.07
2018-08-27T17:37:53.737Z,11.03
2018-08-27T17:40:26.061Z,13.33
2018-08-27T17:42:58.404Z,10.80
2018-08-27T17:45:30.806Z,12.50
2018-08-27T17:48:03.117Z,13.30
2018-08-27T17:50:35.424Z,9.57
2018-08-27T17:53:07.777Z,12.33
2018-08-27T17:55:40.202Z,13.90
2018-08-27T17:58:12.651Z,11.17
2018-08-27T18:00:44.891Z,10.57
2018-08-27T18:03:17.493Z,10.40
2018-08-27T18:05:49.751Z,11.57
2018-08-27T18:08:22.142Z,10.73
2018-08-27T18:10:54.441Z,11.23
2018-08-27T18:13:26.792Z,11.03
2018-08-27T18:15:59.115Z,12.50
2018-08-27T18:18:31.456Z,20.50
2018-08-27T18:21:03.864Z,13.00
2018-08-27T18:23:36.176Z,9.80
2018-08-27T18:26:08.501Z,13.13
2018-08-27T18:28:40.963Z,12.10
2018-08-27T18:31:13.653Z,14.03
2018-08-27T18:33:45.980Z,12.77
2018-08-27T18:36:18.307Z,12.40
2018-08-27T18:38:50.659Z,13.17
2018-08-27T18:41:23.007Z,13.67
2018-08-27T18:43:55.341Z,12.80
2018-08-27T18:46:27.648Z,12.53
2018-08-27T18:49:00.152Z,13.43
2018-08-27T18:51:32.498Z,12.03
2018-08-27T18:54:05.017Z,15.83
2018-08-27T18:56:37.471Z,13.43
2018-08-27T18:59:10.813Z,15.67
2018-08-27T19:01:43.138Z,14.13
2018-08-27T19:04:15.483Z,12.83
2018-08-27T19:06:47.843Z,13.07
2018-08-27T19:09:20.229Z,13.27
2018-08-27T19:11:52.556Z,11.00
2018-08-27T19:14:24.923Z,12.03
2018-08-27T19:16:57.240Z,16.40
2018-08-27T19:19:29.717Z,14.93
2018-08-27T19:22:02.061Z,10.13
2018-08-27T19:24:34.446Z,13.97
2018-08-27T19:27:06.982Z,12.57
2018-08-27T19:29:39.468Z,12.33
2018-08-27T19:32:12.516Z,15.97
2018-08-27T19:34:44.996Z,12.73
2018-08-27T19:37:17.398Z,19.97
2018-08-27T19:39:49.621Z,17.43
2018-08-27T19:42:21.993Z,14.40
2018-08-27T19:44:54.592Z,13.83
2018-08-27T19:47:26.920Z,13.57
2018-08-27T19:49:59.356Z,11.27
2018-08-27T19:52:31.772Z,15.97
2018-08-27T19:55:04.206Z,10.63
2018-08-27T19:57:36.686Z,12.77
2018-08-27T20:00:08.981Z,12.73
2018-08-27T20:02:41.424Z,12.67
2018-08-27T20:05:13.726Z,13.73
2018-08-27T20:07:46.138Z,11.77
2018-08-27T20:10:18.451Z,9.30
